Time;durP1;ratioP1;P1;durP2;ratioP2;P2;SDS_P1;SDS_P2;PMS_P1;PMS_P2;Temp;Humidity;BMP_temperature;BMP_pressure;BME280_temperature;BME280_humidity;BME280_pressure;Samples;Min_cycle;Max_cycle;Signal;HPM_P1;HPM_P2
2022/06/06 00:02:20;;;;;;;;;5.75;4.00;;;;;21.19;62.31;99443.09;5053989;28;45850;-60
2022/06/06 00:04:45;;;;;;;;;6.00;5.00;;;;;21.18;62.33;99441.38;5063584;28;45352;-60
2022/06/06 00:07:10;;;;;;;;;5.25;4.75;;;;;21.17;62.37;99438.78;5071373;28;45655;-60
2022/06/06 00:09:36;;;;;;;;;5.00;5.00;;;;;21.15;61.97;99432.69;5062036;28;45495;-59
2022/06/06 00:12:03;;;;;;;;;3.25;3.25;;;;;21.10;62.34;99421.50;5065464;28;45492;-59
2022/06/06 00:14:29;;;;;;;;;5.00;5.00;;;;;21.04;62.29;99428.19;5058084;28;45401;-59
2022/06/06 00:16:55;;;;;;;;;5.75;5.00;;;;;20.99;62.87;99422.31;5065563;28;45590;-60
2022/06/06 00:19:21;;;;;;;;;4.00;3.75;;;;;20.96;62.58;99421.69;5074680;28;46300;-59
2022/06/06 00:21:48;;;;;;;;;5.20;4.00;;;;;20.92;62.73;99426.47;5075800;28;45392;-59
2022/06/06 00:24:15;;;;;;;;;5.00;4.00;;;;;20.90;62.73;99433.78;5058875;28;45477;-60
2022/06/06 00:26:42;;;;;;;;;4.60;4.60;;;;;20.85;62.92;99423.41;5074093;28;45457;-60
2022/06/06 00:29:08;;;;;;;;;2.20;2.20;;;;;20.82;63.06;99423.63;5050383;28;47722;-60
2022/06/06 00:37:07;;;;;;;;;5.00;4.00;;;;;20.72;63.38;99422.66;5070748;28;45439;-60
2022/06/06 00:39:33;;;;;;;;;5.60;5.60;;;;;20.71;63.76;99425.44;5052412;28;45613;-60
2022/06/06 00:41:58;;;;;;;;;6.25;5.00;;;;;20.70;63.82;99431.78;5073628;28;45445;-60
2022/06/06 00:44:29;;;;;;;;;5.00;5.00;;;;;20.69;63.75;99428.25;5074822;28;45479;-60
2022/06/06 00:47:19;;;;;;;;;6.00;5.00;;;;;20.68;63.81;99431.03;5070944;28;45441;-60
2022/06/06 00:49:47;;;;;;;;;4.60;4.20;;;;;20.66;63.97;99422.25;5064178;28;45431;-60
2022/06/06 00:52:20;;;;;;;;;6.00;5.00;;;;;20.65;63.92;99429.44;5074352;28;45464;-60
2022/06/06 00:54:50;;;;;;;;;7.20;5.20;;;;;20.63;64.56;99420.66;5074462;28;45414;-60
2022/06/06 00:57:21;;;;;;;;;6.00;5.00;;;;;20.61;64.48;99429.81;5072205;28;45360;-60
2022/06/06 00:59:47;;;;;;;;;4.40;4.00;;;;;20.58;64.14;99430.91;5071693;28;46667;-60
2022/06/06 01:02:14;;;;;;;;;4.00;3.40;;;;;20.58;64.30;99428.22;5067998;28;45525;-60
2022/06/06 01:04:41;;;;;;;;;5.60;4.40;;;;;20.57;64.77;99433.69;5075971;28;45514;-60
2022/06/06 01:07:09;;;;;;;;;6.20;5.00;;;;;20.51;64.62;99432.31;5074853;28;45570;-60
2022/06/06 01:09:36;;;;;;;;;5.80;5.80;;;;;20.44;64.81;99423.88;5075240;28;45337;-60
2022/06/06 01:12:07;;;;;;;;;7.40;6.60;;;;;20.40;64.85;99419.75;5072660;28;45369;-60
2022/06/06 01:14:37;;;;;;;;;5.80;4.20;;;;;20.33;64.79;99415.78;5073020;28;45625;-60
2022/06/06 01:17:04;;;;;;;;;3.80;3.80;;;;;20.30;65.42;99407.13;5071012;28;45666;-60
2022/06/06 01:19:44;;;;;;;;;5.60;5.20;;;;;20.28;65.11;99401.88;5075749;28;45438;-60
2022/06/06 01:22:28;;;;;;;;;6.20;5.20;;;;;20.29;65.44;99405.41;5068398;28;45369;-60
2022/06/06 01:25:16;;;;;;;;;4.00;4.00;;;;;20.29;65.56;99410.75;5071015;28;45409;-60
2022/06/06 01:28:17;;;;;;;;;4.20;4.00;;;;;20.29;65.70;99408.94;5068845;28;45422;-60
2022/06/06 01:30:51;;;;;;;;;4.00;4.00;;;;;20.29;65.33;99408.94;5029733;28;46114;-60
2022/06/06 01:33:17;;;;;;;;;5.00;4.00;;;;;20.29;65.21;99408.09;5064431;28;45369;-60
2022/06/06 01:35:46;;;;;;;;;5.25;4.50;;;;;20.28;65.54;99403.69;5070325;28;45421;-60
2022/06/06 01:38:15;;;;;;;;;5.80;5.00;;;;;20.25;65.54;99402.13;5068592;28;45398;-60
2022/06/06 01:41:03;;;;;;;;;5.00;4.00;;;;;20.22;65.77;99399.69;5074194;28;45858;-60
2022/06/06 01:43:44;;;;;;;;;6.00;5.00;;;;;20.21;66.27;99401.50;5059682;28;45460;-60
2022/06/06 01:46:15;;;;;;;;;6.00;5.40;;;;;20.19;66.19;99395.41;5071697;28;45449;-60
2022/06/06 01:48:42;;;;;;;;;6.00;5.60;;;;;20.16;66.31;99398.31;5063471;28;45478;-61
2022/06/06 01:51:14;;;;;;;;;6.20;6.20;;;;;20.15;66.53;99401.94;5070511;28;45536;-60
2022/06/06 01:53:41;;;;;;;;;4.60;4.20;;;;;20.15;66.82;99398.41;5075293;28;45355;-60
2022/06/06 01:56:08;;;;;;;;;6.00;6.00;;;;;20.14;66.35;99399.38;5074057;28;45507;-60
2022/06/06 01:58:35;;;;;;;;;6.00;5.50;;;;;20.12;67.06;99398.66;5074389;28;45459;-60
2022/06/06 02:01:02;;;;;;;;;5.80;5.80;;;;;20.09;66.81;99396.22;5050955;28;47329;-60
2022/06/06 02:03:28;;;;;;;;;5.20;5.20;;;;;20.07;66.63;99395.47;5074813;28;45256;-60
2022/06/06 02:05:54;;;;;;;;;5.00;5.00;;;;;20.05;67.01;99392.06;5073939;28;45404;-60
2022/06/06 02:08:20;;;;;;;;;7.75;4.00;;;;;20.03;66.81;99391.31;5070077;28;45585;-60
2022/06/06 02:10:45;;;;;;;;;4.50;4.50;;;;;20.00;67.07;99392.41;5044159;28;46248;-60
2022/06/06 02:13:11;;;;;;;;;4.25;4.00;;;;;19.99;66.89;99392.50;5071884;28;45502;-60
2022/06/06 02:15:37;;;;;;;;;4.25;4.25;;;;;19.97;66.93;99386.41;5070930;28;45413;-60
2022/06/06 02:18:03;;;;;;;;;6.00;6.00;;;;;19.96;67.27;99390.06;5069411;28;46378;-60
2022/06/06 02:20:31;;;;;;;;;4.00;4.00;;;;;19.96;67.27;99395.41;5074056;28;46036;-60
2022/06/06 02:22:57;;;;;;;;;4.60;4.00;;;;;19.95;67.63;99393.69;5048681;28;45445;-60
2022/06/06 02:25:24;;;;;;;;;4.80;4.80;;;;;19.92;67.22;99392.13;5072440;28;45542;-60
2022/06/06 02:27:50;;;;;;;;;5.00;5.00;;;;;19.91;67.08;99389.56;5068011;28;45360;-61
2022/06/06 02:30:20;;;;;;;;;5.60;5.00;;;;;19.86;67.61;99393.41;5065001;28;46488;-60
2022/06/06 02:32:46;;;;;;;;;5.80;5.00;;;;;19.82;67.36;99388.41;5061019;28;45490;-60
2022/06/06 02:35:16;;;;;;;;;6.25;5.00;;;;;19.80;67.40;99396.53;5066668;28;45607;-60
2022/06/06 02:37:42;;;;;;;;;5.60;5.60;;;;;19.78;68.15;99392.25;5072473;28;45305;-60
2022/06/06 02:40:10;;;;;;;;;6.25;5.50;;;;;19.75;68.02;99396.03;5073312;28;45380;-60
2022/06/06 02:42:37;;;;;;;;;5.20;4.80;;;;;19.74;68.59;99393.47;5071762;28;45448;-60
2022/06/06 02:45:06;;;;;;;;;6.80;5.40;;;;;19.73;68.31;99399.78;5073195;28;45530;-60
2022/06/06 02:47:32;;;;;;;;;4.75;4.75;;;;;19.72;68.47;99404.28;5068437;28;45644;-61
2022/06/06 02:49:58;;;;;;;;;4.75;4.75;;;;;19.72;68.50;99400.75;5073406;28;45788;-60
2022/06/06 02:52:23;;;;;;;;;3.00;3.00;;;;;19.72;68.39;99403.44;5072809;28;45510;-60
2022/06/06 02:54:49;;;;;;;;;4.00;4.00;;;;;19.69;68.33;99406.31;5064681;28;45499;-60
2022/06/06 02:57:14;;;;;;;;;9.25;9.25;;;;;19.66;68.19;99414.56;5071376;28;45403;-60
2022/06/06 02:59:43;;;;;;;;;4.00;4.00;;;;;19.62;68.04;99413.06;5051565;28;45643;-60
2022/06/06 03:02:09;;;;;;;;;5.00;4.00;;;;;19.58;68.33;99423.16;5070186;28;45446;-60
2022/06/06 03:04:37;;;;;;;;;5.20;4.20;;;;;19.55;68.99;99411.81;5073718;28;45512;-60
2022/06/06 03:07:32;;;;;;;;;4.00;4.00;;;;;19.55;68.72;99414.50;5068535;28;45614;-60
2022/06/06 03:10:03;;;;;;;;;5.00;5.00;;;;;19.55;68.74;99412.69;5047783;28;47128;-60
2022/06/06 03:12:42;;;;;;;;;4.40;4.40;;;;;19.50;68.54;99417.50;5069761;28;45373;-60
2022/06/06 03:15:22;;;;;;;;;5.00;5.00;;;;;19.46;68.79;99418.66;5072436;28;45384;-60
2022/06/06 03:20:46;;;;;;;;;3.00;3.00;;;;;19.39;69.28;99423.59;5070674;28;45374;-60
2022/06/06 03:23:36;;;;;;;;;4.40;4.40;;;;;19.38;69.43;99429.06;5060510;28;45492;-60
2022/06/06 03:26:30;;;;;;;;;10.00;8.00;;;;;19.37;69.78;99430.88;5064824;28;45503;-60
2022/06/06 03:29:33;;;;;;;;;17.00;16.75;;;;;19.38;69.73;99440.59;5069076;28;45572;-60
2022/06/06 03:32:06;;;;;;;;;17.00;14.00;;;;;19.39;70.06;99438.78;5070937;28;47075;-60
2022/06/06 03:34:45;;;;;;;;;15.50;14.50;;;;;19.39;69.49;99438.78;5073516;28;45349;-60
2022/06/06 03:37:17;;;;;;;;;29.33;29.00;;;;;19.38;69.64;99432.59;5071593;28;45407;-60
2022/06/06 03:39:57;;;;;;;;;18.50;18.50;;;;;19.37;70.21;99443.38;5073289;28;45456;-60
2022/06/06 03:42:25;;;;;;;;;25.00;23.25;;;;;19.38;69.95;99450.44;5069702;28;46098;-60
2022/06/06 03:45:06;;;;;;;;;18.25;16.50;;;;;19.38;69.66;99451.28;5072505;28;45392;-60
2022/06/06 03:47:46;;;;;;;;;14.75;13.75;;;;;19.35;69.94;99448.84;5061832;28;45385;-60
2022/06/06 03:50:42;;;;;;;;;7.00;7.00;;;;;19.32;70.34;99454.38;5065375;28;45548;-60
2022/06/06 03:53:21;;;;;;;;;6.00;6.00;;;;;19.29;70.45;99459.09;5073912;28;45493;-60
2022/06/06 03:55:52;;;;;;;;;8.00;8.00;;;;;19.27;70.48;99456.53;5057693;28;45516;-60
2022/06/06 03:58:21;;;;;;;;;7.25;6.00;;;;;19.28;70.25;99452.03;5052593;28;45364;-60
2022/06/06 04:00:47;;;;;;;;;5.00;5.00;;;;;19.27;70.26;99448.50;5066564;28;45505;-60
2022/06/06 04:03:13;;;;;;;;;5.00;5.00;;;;;19.26;70.37;99446.81;5076194;28;45498;-60
2022/06/06 04:05:40;;;;;;;;;5.60;5.20;;;;;19.25;70.05;99449.59;5075286;28;45477;-60
2022/06/06 04:08:08;;;;;;;;;6.00;6.00;;;;;19.23;70.35;99448.84;5068244;28;45401;-60
2022/06/06 04:11:14;;;;;;;;;7.00;5.00;;;;;19.22;70.50;99450.66;5076157;28;45557;-60
2022/06/06 04:13:43;;;;;;;;;8.75;7.00;;;;;19.24;70.27;99448.75;5066813;28;45521;-60
2022/06/06 04:16:35;;;;;;;;;8.00;7.00;;;;;19.25;70.27;99442.44;5075300;28;45367;-60
2022/06/06 04:19:03;;;;;;;;;6.25;4.50;;;;;19.25;70.58;99441.59;5073712;28;45457;-60
2022/06/06 04:21:35;;;;;;;;;6.25;6.00;;;;;19.26;70.10;99444.16;5074995;28;45343;-60
2022/06/06 04:24:19;;;;;;;;;7.00;5.75;;;;;19.25;70.52;99455.81;5075263;28;46392;-60
2022/06/06 04:27:10;;;;;;;;;6.00;5.00;;;;;19.26;70.36;99452.16;5061825;28;45634;-60
2022/06/06 04:30:22;;;;;;;;;9.00;9.00;;;;;19.29;70.34;99459.09;5056521;28;45568;-60
2022/06/06 04:33:17;;;;;;;;;6.00;6.00;;;;;19.32;70.42;99467.75;5056587;28;45602;-60
2022/06/06 04:36:13;;;;;;;;;6.25;6.25;;;;;19.32;70.31;99465.09;5075906;28;46534;-60
2022/06/06 04:38:43;;;;;;;;;5.20;4.80;;;;;19.31;70.11;99459.84;5061402;28;45507;-60
2022/06/06 04:41:20;;;;;;;;;5.50;5.25;;;;;19.31;70.00;99454.50;5073618;28;45493;-60
2022/06/06 04:43:54;;;;;;;;;6.75;6.75;;;;;19.32;70.58;99450.88;5064789;28;45380;-60
2022/06/06 04:46:30;;;;;;;;;8.00;8.00;;;;;19.34;70.47;99448.94;5068152;28;46328;-60
2022/06/06 04:48:57;;;;;;;;;6.60;5.20;;;;;19.37;70.57;99452.25;5075441;28;45500;-60
2022/06/06 04:51:23;;;;;;;;;5.00;5.00;;;;;19.40;70.03;99453.88;5057094;28;45467;-59
2022/06/06 04:53:53;;;;;;;;;6.75;5.25;;;;;19.39;70.20;99453.00;5056943;28;45385;-59
2022/06/06 04:56:20;;;;;;;;;5.75;5.75;;;;;19.34;70.17;99443.59;5066828;28;46132;-60
2022/06/06 04:58:48;;;;;;;;;7.60;6.40;;;;;19.30;70.50;99447.44;5073897;28;45420;-60
2022/06/06 05:01:14;;;;;;;;;10.00;8.00;;;;;19.23;71.05;99444.38;5074350;28;45385;-60
2022/06/06 05:03:40;;;;;;;;;7.00;6.75;;;;;19.20;70.91;99449.91;5070904;28;45249;-60
2022/06/06 05:06:23;;;;;;;;;6.25;6.00;;;;;19.20;71.24;99452.59;5046538;28;48423;-60
2022/06/06 05:09:27;;;;;;;;;4.40;4.00;;;;;19.18;71.25;99444.69;5075954;28;45485;-60
2022/06/06 05:12:09;;;;;;;;;6.00;6.00;;;;;19.13;71.46;99451.28;5071555;28;45468;-60
2022/06/06 05:14:37;;;;;;;;;7.00;7.00;;;;;19.11;71.81;99445.19;5062984;28;45436;-60
2022/06/06 05:17:14;;;;;;;;;4.50;4.50;;;;;19.04;71.85;99446.59;5069051;28;45626;-60
2022/06/06 05:20:00;;;;;;;;;10.00;7.20;;;;;18.97;72.08;99450.66;5063110;28;45325;-60
2022/06/06 05:23:08;;;;;;;;;8.25;7.25;;;;;18.96;71.98;99448.94;5067900;28;45499;-60
2022/06/06 05:25:33;;;;;;;;;4.25;4.25;;;;;18.97;72.32;99447.97;5075494;28;45421;-59
2022/06/06 05:28:10;;;;;;;;;8.25;7.00;;;;;19.05;72.14;99448.31;5045808;28;47898;-59
2022/06/06 05:31:00;;;;;;;;;8.75;7.75;;;;;19.13;72.33;99445.94;5068156;28;45585;-59
2022/06/06 05:33:41;;;;;;;;;9.00;8.00;;;;;19.22;71.59;99450.66;5065038;28;45439;-59
2022/06/06 05:36:28;;;;;;;;;7.75;7.00;;;;;19.29;72.06;99445.72;5066828;28;45519;-59
2022/06/06 05:39:05;;;;;;;;;10.00;7.00;;;;;19.34;71.45;99438.25;5073294;28;46246;-59
2022/06/06 05:41:41;;;;;;;;;9.00;7.60;;;;;19.36;71.18;99445.19;5072462;28;45459;-59
2022/06/06 05:44:23;;;;;;;;;7.25;7.25;;;;;19.38;71.29;99451.28;5068089;28;45473;-59
2022/06/06 05:47:06;;;;;;;;;10.00;8.00;;;;;19.34;71.59;99455.13;5070878;28;45350;-59
2022/06/06 05:49:45;;;;;;;;;5.75;5.75;;;;;19.33;71.43;99460.59;5060623;28;46693;-59
2022/06/06 05:52:29;;;;;;;;;3.20;1.40;;;;;19.35;71.46;99461.34;5043294;28;45586;-59
2022/06/06 05:55:39;;;;;;;;;8.40;7.40;;;;;19.41;71.32;99461.78;5065665;28;45511;-59
2022/06/06 05:58:21;;;;;;;;;9.75;6.50;;;;;19.45;71.32;99457.91;5051449;28;45529;-59
2022/06/06 06:00:58;;;;;;;;;8.00;7.50;;;;;19.45;71.58;99457.91;5054721;28;47265;-59
2022/06/06 06:03:41;;;;;;;;;10.20;7.00;;;;;19.47;71.39;99460.47;5067832;28;45498;-59
2022/06/06 06:06:12;;;;;;;;;8.00;7.50;;;;;19.52;71.54;99461.03;5072283;28;45517;-58
2022/06/06 06:08:48;;;;;;;;;8.00;8.00;;;;;19.50;71.71;99458.47;5067241;28;45512;-59
2022/06/06 06:11:32;;;;;;;;;9.60;9.60;;;;;19.54;71.14;99459.13;5067165;28;45468;-59
2022/06/06 06:14:10;;;;;;;;;10.00;8.00;;;;;19.66;70.67;99462.72;5069588;28;45379;-59
2022/06/06 06:16:45;;;;;;;;;10.00;8.40;;;;;19.74;70.50;99466.56;5067599;28;45392;-59
2022/06/06 06:19:21;;;;;;;;;8.00;8.00;;;;;19.84;70.33;99464.06;5069366;28;45178;-59
2022/06/06 06:21:55;;;;;;;;;8.50;7.75;;;;;19.96;70.01;99467.66;5062705;28;45592;-60
2022/06/06 06:24:31;;;;;;;;;12.40;10.00;;;;;20.05;69.66;99472.34;5062026;28;45697;-59
2022/06/06 06:26:58;;;;;;;;;8.75;7.75;;;;;20.12;68.95;99473.59;5072789;28;45463;-59
2022/06/06 06:29:24;;;;;;;;;7.75;7.75;;;;;20.19;69.15;99469.50;5072607;28;45500;-59
2022/06/06 06:32:18;;;;;;;;;10.00;9.00;;;;;20.29;68.77;99464.31;5070374;28;45403;-60
2022/06/06 06:34:59;;;;;;;;;8.40;8.00;;;;;20.44;67.95;99465.91;5068333;28;45383;-60
2022/06/06 06:37:49;;;;;;;;;8.50;8.25;;;;;20.55;67.32;99466.81;5072800;28;45463;-59
2022/06/06 06:40:20;;;;;;;;;13.00;12.00;;;;;20.65;67.23;99474.97;5073320;28;45491;-59
2022/06/06 06:42:48;;;;;;;;;9.00;8.00;;;;;20.73;66.96;99467.22;5068966;28;46237;-60
2022/06/06 06:45:23;;;;;;;;;9.40;9.00;;;;;20.84;66.88;99461.91;5067033;28;45545;-59
2022/06/06 06:47:52;;;;;;;;;9.60;8.60;;;;;20.95;66.01;99470.94;5066827;28;45455;-59
2022/06/06 06:50:32;;;;;;;;;10.25;8.50;;;;;21.02;65.81;99472.16;5062533;28;45421;-60
2022/06/06 06:53:31;;;;;;;;;7.00;5.50;;;;;21.09;65.04;99473.41;5066356;28;46689;-59
2022/06/06 06:56:30;;;;;;;;;9.40;9.20;;;;;21.17;64.78;99468.28;5072185;28;45427;-59
2022/06/06 06:59:03;;;;;;;;;8.50;8.50;;;;;21.24;65.35;99472.25;5071207;28;45514;-60
2022/06/06 07:01:35;;;;;;;;;8.00;8.00;;;;;21.37;64.55;99472.97;5073497;28;45341;-59
2022/06/06 07:08:57;;;;;;;;;9.00;9.00;;;;;21.57;64.13;99474.09;5068788;28;45558;-60
2022/06/06 07:11:29;;;;;;;;;9.50;9.00;;;;;21.65;63.92;99473.47;5032451;28;45546;-59
2022/06/06 07:14:04;;;;;;;;;13.00;10.25;;;;;21.67;63.24;99475.06;5058780;28;45527;-59
2022/06/06 07:16:34;;;;;;;;;9.25;9.25;;;;;21.67;63.00;99471.50;5050710;28;47105;-59
2022/06/06 07:19:06;;;;;;;;;10.80;8.00;;;;;21.67;63.26;99483.09;5071544;28;45475;-60
2022/06/06 07:21:33;;;;;;;;;11.50;11.00;;;;;21.67;63.13;99475.06;5069905;28;45482;-59
2022/06/06 07:24:02;;;;;;;;;10.00;10.00;;;;;21.76;63.56;99466.28;5057667;28;45495;-61
2022/06/06 07:26:28;;;;;;;;;13.00;11.25;;;;;21.87;63.35;99463.56;5062402;28;46831;-60
2022/06/06 07:28:53;;;;;;;;;10.00;9.75;;;;;21.92;62.48;99458.69;5053380;28;45553;-60
2022/06/06 07:31:39;;;;;;;;;9.50;9.50;;;;;21.95;62.62;99463.78;5074280;28;45473;-60
2022/06/06 07:34:19;;;;;;;;;10.75;10.00;;;;;21.99;63.11;99453.66;5068051;28;45609;-60
2022/06/06 07:37:02;;;;;;;;;9.40;8.40;;;;;22.06;62.73;99451.38;5074227;28;46414;-59
2022/06/06 07:39:48;;;;;;;;;8.40;7.60;;;;;22.08;62.96;99450.28;5067026;28;45484;-60
2022/06/06 07:42:41;;;;;;;;;8.25;8.00;;;;;22.06;62.73;99446.84;5072564;28;45621;-60
2022/06/06 07:45:38;;;;;;;;;9.00;8.75;;;;;22.04;63.09;99440.75;5075516;28;45443;-60
2022/06/06 07:48:24;;;;;;;;;8.00;8.00;;;;;22.01;63.16;99435.63;5066312;28;46386;-59
2022/06/06 07:51:08;;;;;;;;;8.80;8.20;;;;;22.03;62.89;99435.50;5074869;28;45714;-60
2022/06/06 07:53:40;;;;;;;;;8.40;6.80;;;;;22.06;62.82;99428.06;5068308;28;45376;-60
2022/06/06 07:56:34;;;;;;;;;8.75;7.75;;;;;22.14;62.69;99430.94;5070222;28;45590;-60
2022/06/06 07:59:31;;;;;;;;;10.00;8.20;;;;;22.17;62.61;99427.16;5060391;28;46277;-60
2022/06/06 08:02:18;;;;;;;;;10.20;9.20;;;;;22.18;62.52;99432.41;5067959;28;45563;-60
2022/06/06 08:05:11;;;;;;;;;8.00;8.00;;;;;22.21;62.33;99424.09;5053966;28;45488;-60
2022/06/06 08:07:46;;;;;;;;;9.00;8.00;;;;;22.20;62.39;99418.84;5072628;28;45591;-59
2022/06/06 08:10:43;;;;;;;;;11.00;9.00;;;;;22.23;62.12;99415.91;5061125;28;45515;-59
2022/06/06 08:13:30;;;;;;;;;9.80;9.60;;;;;22.18;62.51;99416.28;5069364;28;45494;-60
2022/06/06 08:16:21;;;;;;;;;12.25;11.00;;;;;22.17;62.32;99414.59;5067047;28;45567;-59
2022/06/06 08:19:05;;;;;;;;;8.50;8.50;;;;;22.19;62.45;99417.13;5073320;28;45439;-59
2022/06/06 08:21:39;;;;;;;;;9.25;9.25;;;;;22.17;62.40;99406.53;5070490;28;46789;-60
2022/06/06 08:24:07;;;;;;;;;9.20;9.00;;;;;22.20;62.65;99398.22;5071792;28;45420;-60
2022/06/06 08:26:38;;;;;;;;;8.00;8.00;;;;;22.21;62.49;99405.28;5065068;28;45637;-60
2022/06/06 08:29:09;;;;;;;;;12.00;12.00;;;;;22.23;62.04;99402.47;5070950;28;45489;-60
2022/06/06 08:31:35;;;;;;;;;7.80;7.20;;;;;22.23;61.86;99394.44;5069812;28;45618;-59
2022/06/06 08:34:01;;;;;;;;;8.50;8.50;;;;;22.23;61.38;99392.59;5065369;28;45388;-61
2022/06/06 08:36:54;;;;;;;;;10.25;9.50;;;;;22.27;61.70;99395.88;5074770;28;45546;-60
2022/06/06 08:39:19;;;;;;;;;7.00;7.00;;;;;22.27;61.48;99395.88;5069927;28;45535;-60
2022/06/06 08:42:03;;;;;;;;;9.00;9.00;;;;;22.25;61.31;99395.16;5069120;28;46115;-59
2022/06/06 08:44:37;;;;;;;;;8.00;8.00;;;;;22.33;61.44;99394.50;5065440;28;45462;-60
2022/06/06 08:47:15;;;;;;;;;7.60;7.00;;;;;22.43;60.90;99387.38;5071797;28;45255;-61
2022/06/06 08:53:12;;;;;;;;;8.80;7.80;;;;;22.60;60.35;99378.72;5065871;28;45684;-59
2022/06/06 08:56:19;;;;;;;;;8.80;8.80;;;;;22.64;60.71;99380.16;5072180;28;45554;-60
2022/06/06 08:58:57;;;;;;;;;8.80;8.80;;;;;22.76;60.04;99375.59;5073816;28;45590;-59
2022/06/06 09:01:41;;;;;;;;;8.75;8.00;;;;;22.84;59.75;99378.47;5056582;28;45499;-59
2022/06/06 09:04:19;;;;;;;;;9.00;9.00;;;;;22.88;59.91;99369.16;5065935;28;45531;-59
2022/06/06 09:07:09;;;;;;;;;9.60;9.60;;;;;22.93;59.64;99369.63;5071598;28;45648;-59
2022/06/06 09:09:49;;;;;;;;;9.00;9.00;;;;;23.02;59.64;99365.28;5066076;28;45599;-59
2022/06/06 09:12:33;;;;;;;;;9.50;8.25;;;;;23.12;58.87;99368.88;5074391;28;45451;-58
2022/06/06 09:15:13;;;;;;;;;8.75;7.75;;;;;23.19;58.82;99356.56;5068208;28;47474;-57
2022/06/06 09:17:51;;;;;;;;;9.60;7.00;;;;;23.26;58.23;99361.28;5073924;28;45474;-58
2022/06/06 09:20:50;;;;;;;;;10.75;9.75;;;;;23.35;58.52;99354.22;5073092;28;45627;-57
2022/06/06 09:23:26;;;;;;;;;6.60;6.20;;;;;23.44;56.97;99344.50;5065934;28;45437;-57
2022/06/06 09:26:01;;;;;;;;;7.60;7.60;;;;;23.51;56.71;99349.19;5070020;28;45414;-59
2022/06/06 09:28:35;;;;;;;;;8.20;8.20;;;;;23.57;56.79;99340.59;5071418;28;45496;-58
2022/06/06 09:31:06;;;;;;;;;7.00;7.00;;;;;23.64;56.71;99346.25;5056235;28;45475;-58
2022/06/06 09:33:40;;;;;;;;;10.75;9.00;;;;;23.72;56.26;99334.81;5069310;28;45464;-58
2022/06/06 09:36:46;;;;;;;;;8.75;8.50;;;;;23.74;55.89;99338.22;5073529;28;46737;-54
2022/06/06 09:39:42;;;;;;;;;9.80;9.80;;;;;23.77;56.40;99338.78;4972434;28;45610;-57
2022/06/06 09:42:40;;;;;;;;;9.00;7.40;;;;;23.85;56.10;99335.38;5067266;28;45445;-61
2022/06/06 09:45:11;;;;;;;;;7.75;7.00;;;;;23.92;55.86;99329.31;5047665;28;45448;-65
2022/06/06 09:47:59;;;;;;;;;8.60;8.40;;;;;24.00;56.17;99333.97;5066661;28;45442;-60
2022/06/06 09:50:36;;;;;;;;;8.20;8.00;;;;;24.13;55.52;99329.13;5073626;28;45581;-60
2022/06/06 09:53:38;;;;;;;;;8.00;8.00;;;;;24.25;55.40;99333.44;5060934;28;45443;-60
2022/06/06 09:59:34;;;;;;;;;8.00;7.80;;;;;24.38;54.67;99324.19;5062927;28;45747;-60
2022/06/06 10:02:37;;;;;;;;;7.40;7.20;;;;;24.44;54.11;99319.09;5051269;28;45397;-60
2022/06/06 10:05:27;;;;;;;;;10.00;7.20;;;;;24.55;53.33;99307.28;5066688;28;45423;-60
2022/06/06 10:08:17;;;;;;;;;6.50;6.50;;;;;24.61;52.23;99315.66;5058168;28;45373;-60
2022/06/06 10:11:01;;;;;;;;;5.40;5.20;;;;;24.61;52.49;99306.72;5061306;28;45631;-58
2022/06/06 10:14:03;;;;;;;;;5.60;5.60;;;;;24.68;52.06;99308.66;5059806;28;45459;-58
2022/06/06 10:16:35;;;;;;;;;4.80;4.00;;;;;24.79;52.14;99304.13;5063170;28;45433;-59
2022/06/06 10:19:18;;;;;;;;;5.00;4.80;;;;;24.86;50.52;99306.06;5065943;28;45209;-58
2022/06/06 10:22:05;;;;;;;;;5.40;5.40;;;;;24.92;50.07;99302.78;5072125;28;45605;-57
2022/06/06 10:24:52;;;;;;;;;5.20;5.00;;;;;25.00;49.91;99296.66;5062484;28;45437;-59
2022/06/06 10:27:53;;;;;;;;;5.80;5.80;;;;;25.02;49.02;99286.56;5066541;28;45508;-59
2022/06/06 10:30:27;;;;;;;;;7.40;6.60;;;;;25.08;49.31;99286.00;5041872;28;45601;-59
2022/06/06 10:33:16;;;;;;;;;5.00;5.00;;;;;25.17;49.93;99282.38;5066981;28;45499;-59
2022/06/06 10:36:11;;;;;;;;;4.20;4.20;;;;;25.25;49.17;99282.50;5068827;28;45392;-59
2022/06/06 10:38:57;;;;;;;;;5.80;5.00;;;;;25.35;46.57;99277.03;5067759;28;45340;-59
2022/06/06 10:42:02;;;;;;;;;9.00;7.00;;;;;25.38;48.06;99282.97;5070538;28;45523;-58
2022/06/06 10:44:27;;;;;;;;;9.75;9.75;;;;;25.43;47.56;99278.97;5066584;27;46204;-58
2022/06/06 10:47:08;;;;;;;;;5.25;5.25;;;;;25.50;47.27;99275.50;5054642;28;45475;-62
2022/06/06 10:50:16;;;;;;;;;7.20;5.60;;;;;25.52;46.55;99280.75;5043302;28;45440;-60
2022/06/06 10:53:36;;;;;;;;;4.80;4.80;;;;;25.52;46.11;99273.50;5070788;28;45401;-60
2022/06/06 10:56:34;;;;;;;;;3.80;3.80;;;;;25.54;45.93;99274.19;5066122;28;45495;-60
2022/06/06 10:59:18;;;;;;;;;6.20;5.80;;;;;25.57;45.14;99276.59;5071409;28;45477;-60
2022/06/06 11:02:05;;;;;;;;;4.80;4.80;;;;;25.56;45.77;99274.91;5070397;28;45530;-59
2022/06/06 11:04:49;;;;;;;;;6.75;5.75;;;;;25.59;46.52;99262.94;5061665;28;45586;-58
2022/06/06 11:07:26;;;;;;;;;6.20;5.20;;;;;25.70;46.76;99268.16;5066635;28;45614;-56
2022/06/06 11:10:06;;;;;;;;;5.60;5.40;;;;;25.76;46.71;99266.69;5071114;28;45424;-57
2022/06/06 11:13:10;;;;;;;;;7.00;6.60;;;;;25.77;45.34;99277.34;5070573;28;45495;-57
2022/06/06 11:15:47;;;;;;;;;6.00;6.00;;;;;25.78;45.71;99262.84;5048871;28;45612;-57
2022/06/06 11:18:18;;;;;;;;;8.60;8.60;;;;;25.82;46.67;99264.22;5069527;28;46217;-57
2022/06/06 11:21:09;;;;;;;;;7.60;5.80;;;;;25.86;45.93;99262.06;5071534;28;45405;-56
2022/06/06 11:23:56;;;;;;;;;6.00;5.60;;;;;25.84;46.48;99255.94;5066467;28;45451;-57
2022/06/06 11:26:49;;;;;;;;;5.50;5.50;;;;;25.85;46.59;99261.19;5072741;28;45496;-57
2022/06/06 11:29:17;;;;;;;;;5.60;5.60;;;;;25.91;46.38;99259.75;5066903;28;46491;-57
2022/06/06 11:32:07;;;;;;;;;5.20;5.20;;;;;25.96;46.17;99244.78;5050543;28;45333;-57
2022/06/06 11:34:58;;;;;;;;;5.40;5.00;;;;;26.08;46.21;99248.06;5073281;28;45543;-57
2022/06/06 11:37:55;;;;;;;;;6.80;6.80;;;;;26.22;46.05;99243.94;5036270;28;45421;-57
2022/06/06 11:40:23;;;;;;;;;7.20;5.40;;;;;26.32;45.28;99237.44;5070732;28;46366;-57
2022/06/06 11:43:17;;;;;;;;;5.40;5.00;;;;;26.42;43.50;99229.25;5062381;28;45562;-56
2022/06/06 11:45:58;;;;;;;;;6.60;5.80;;;;;26.46;44.26;99227.09;5069063;28;45514;-54
2022/06/06 11:49:00;;;;;;;;;5.75;5.75;;;;;26.55;44.10;99232.38;5070446;28;45569;-57
2022/06/06 11:51:31;;;;;;;;;6.40;6.40;;;;;26.61;44.64;99222.78;5065162;28;46445;-57
2022/06/06 11:54:18;;;;;;;;;7.40;7.00;;;;;26.70;43.31;99206.41;5044082;28;45455;-56
2022/06/06 11:57:11;;;;;;;;;4.00;4.00;;;;;26.79;43.51;99198.34;5071407;28;45461;-56
2022/06/06 12:00:04;;;;;;;;;4.40;4.40;;;;;26.84;43.31;99201.38;5053356;28;45499;-57
2022/06/06 12:02:48;;;;;;;;;4.20;4.00;;;;;26.88;42.93;99184.69;5037612;28;47418;-57
2022/06/06 12:05:25;;;;;;;;;5.40;5.40;;;;;26.98;42.91;99182.69;5070760;28;45490;-57
2022/06/06 12:08:35;;;;;;;;;7.20;6.60;;;;;27.09;41.33;99187.84;5075091;28;45396;-57
2022/06/06 12:11:19;;;;;;;;;6.80;5.00;;;;;27.09;41.32;99176.16;4963515;28;45577;-57
2022/06/06 12:13:59;;;;;;;;;6.00;5.80;;;;;27.02;41.55;99181.38;5071283;28;46620;-57
2022/06/06 12:16:43;;;;;;;;;4.80;4.80;;;;;26.95;40.03;99176.78;5055612;28;45557;-65
2022/06/06 12:19:29;;;;;;;;;7.40;6.00;;;;;26.92;41.08;99171.69;5071159;28;45506;-65
2022/06/06 12:22:24;;;;;;;;;3.80;3.80;;;;;26.91;40.40;99167.28;5072441;28;46047;-65
2022/06/06 12:25:14;;;;;;;;;5.20;5.20;;;;;26.93;40.64;99157.97;5060944;28;45491;-65
2022/06/06 12:27:52;;;;;;;;;4.00;4.00;;;;;27.03;40.51;99164.13;5074027;28;45467;-65
2022/06/06 12:30:18;;;;;;;;;2.20;2.20;;;;;27.14;39.07;99183.78;5075639;28;45420;-65
2022/06/06 12:32:58;;;;;;;;;2.00;2.00;;;;;27.17;38.63;99161.78;5073250;28;45355;-65
2022/06/06 12:35:55;;;;;;;;;5.20;5.20;;;;;27.15;38.83;99183.59;5069242;28;45529;-65
2022/06/06 12:38:36;;;;;;;;;4.40;3.80;;;;;27.15;39.73;99153.81;5068670;28;45559;-64
2022/06/06 12:41:19;;;;;;;;;3.80;3.00;;;;;27.12;39.24;99166.88;5075789;28;45522;-64
2022/06/06 12:43:56;;;;;;;;;3.80;3.20;;;;;27.13;38.86;99161.28;5072999;28;45471;-64
2022/06/06 12:46:39;;;;;;;;;4.40;3.00;;;;;27.11;38.83;99147.06;5071874;28;47319;-64